Time;durP1;ratioP1;P1;durP2;ratioP2;P2;SDS_P1;SDS_P2;PMS_P1;PMS_P2;Temp;Humidity;BMP_temperature;BMP_pressure;BME280_temperature;BME280_humidity;BME280_pressure;Samples;Min_cycle;Max_cycle;Signal;HPM_P1;HPM_P2
2023/06/12 00:02:02;;;;;;;7.18;4.18;;;;;;;26.71;33.94;101400.50;6199693;23;20052;-61
2023/06/12 00:04:30;;;;;;;8.32;4.15;;;;;;;26.70;33.79;101412.69;6200273;23;20025;-61
2023/06/12 00:06:58;;;;;;;5.68;4.35;;;;;;;26.69;33.94;101406.34;6199434;23;20025;-61
2023/06/12 00:09:26;;;;;;;7.20;3.83;;;;;;;26.68;33.64;101404.72;6200333;23;20091;-62
2023/06/12 00:11:54;;;;;;;5.25;4.10;;;;;;;26.66;34.00;101409.75;6198623;23;20025;-62
2023/06/12 00:14:22;;;;;;;5.10;4.35;;;;;;;26.65;33.81;101405.34;6199864;23;20025;-61
2023/06/12 00:16:51;;;;;;;5.78;4.35;;;;;;;26.64;34.05;101408.44;6199779;23;20025;-62
2023/06/12 00:19:20;;;;;;;7.00;4.28;;;;;;;26.61;33.78;101406.31;6199681;23;20029;-61
2023/06/12 00:21:48;;;;;;;6.72;4.60;;;;;;;26.61;33.96;101403.53;6199638;23;20032;-61
2023/06/12 00:24:16;;;;;;;6.32;4.53;;;;;;;26.58;33.95;101405.81;6199655;23;20100;-62
2023/06/12 00:26:44;;;;;;;6.25;3.90;;;;;;;26.57;33.95;101401.41;6198686;23;20069;-62
2023/06/12 00:29:11;;;;;;;6.78;3.72;;;;;;;26.55;33.86;101402.88;6200082;23;20067;-61
2023/06/12 00:31:39;;;;;;;4.88;3.90;;;;;;;26.52;34.04;101400.75;6199387;23;20048;-61
2023/06/12 00:34:08;;;;;;;7.03;3.88;;;;;;;26.49;34.08;101401.38;6199834;23;20391;-62
2023/06/12 00:36:36;;;;;;;6.43;4.22;;;;;;;26.46;34.04;101399.25;6199481;23;20025;-61
2023/06/12 00:39:05;;;;;;;8.32;4.38;;;;;;;26.44;33.93;101396.81;6199811;23;20032;-60
2023/06/12 00:41:33;;;;;;;5.53;4.03;;;;;;;26.43;34.06;101397.13;6198665;23;20059;-63
2023/06/12 00:44:01;;;;;;;7.82;4.03;;;;;;;26.41;34.04;101388.34;6199448;23;20032;-63
2023/06/12 00:46:29;;;;;;;5.15;3.72;;;;;;;26.39;33.97;101391.41;6199273;23;20029;-62
2023/06/12 00:48:57;;;;;;;5.32;3.72;;;;;;;26.37;33.94;101396.44;6198921;23;20024;-63
2023/06/12 00:51:28;;;;;;;4.68;3.47;;;;;;;26.35;34.07;101393.19;6199437;23;20096;-62
2023/06/12 00:53:57;;;;;;;8.18;3.90;;;;;;;26.33;34.19;101395.44;6199626;23;20025;-61
2023/06/12 00:56:27;;;;;;;5.80;4.22;;;;;;;26.32;34.04;101404.00;6198551;23;20049;-61
2023/06/12 00:58:55;;;;;;;6.65;4.07;;;;;;;26.27;34.08;101399.41;6199397;23;20056;-61
2023/06/12 01:01:26;;;;;;;5.38;3.85;;;;;;;26.25;33.85;101396.16;6198657;23;20021;-62
2023/06/12 01:03:57;;;;;;;8.50;3.88;;;;;;;26.22;34.10;101394.03;6199315;23;20562;-62
2023/06/12 01:06:38;;;;;;;6.82;4.25;;;;;;;26.17;33.94;101391.41;6199665;23;20025;-62
2023/06/12 01:09:17;;;;;;;6.63;4.35;;;;;;;26.14;34.07;101394.78;6199816;23;20025;-61
2023/06/12 01:11:46;;;;;;;5.63;3.90;;;;;;;26.10;34.24;101399.28;6197948;23;20021;-61
2023/06/12 01:14:16;;;;;;;4.75;3.63;;;;;;;26.08;34.03;101396.03;6199287;23;20044;-61
2023/06/12 01:16:45;;;;;;;5.43;4.15;;;;;;;26.07;34.10;101399.91;6199288;23;20025;-62
2023/06/12 01:19:19;;;;;;;5.78;4.10;;;;;;;26.02;34.10;101395.34;6198866;23;20024;-61
2023/06/12 01:21:57;;;;;;;5.75;4.00;;;;;;;25.98;34.04;101394.38;6198774;23;20518;-61
2023/06/12 01:25:00;;;;;;;10.27;4.10;;;;;;;25.95;34.15;101395.00;6199227;23;20044;-61
2023/06/12 01:27:53;;;;;;;7.53;4.50;;;;;;;25.91;34.17;101399.50;6179114;23;20095;-63
2023/06/12 01:30:46;;;;;;;8.15;4.28;;;;;;;25.88;34.14;101398.19;6199151;23;20021;-61
2023/06/12 01:33:21;;;;;;;5.18;4.10;;;;;;;25.84;34.05;101401.88;6192199;23;20024;-62
2023/06/12 01:35:51;;;;;;;6.57;4.25;;;;;;;25.82;34.16;101396.69;6198900;23;20052;-62
2023/06/12 01:38:21;;;;;;;5.70;3.78;;;;;;;25.80;34.29;101403.63;6199066;23;20025;-62
2023/06/12 01:40:50;;;;;;;6.78;4.47;;;;;;;25.77;34.18;101401.47;6198408;23;20083;-61
2023/06/12 01:43:18;;;;;;;7.55;4.07;;;;;;;25.76;34.12;101408.13;6198604;23;20032;-62
2023/06/12 01:45:46;;;;;;;9.07;4.18;;;;;;;25.73;34.05;101409.56;6199149;23;20051;-61
2023/06/12 01:48:14;;;;;;;8.63;4.18;;;;;;;25.70;34.19;101409.34;6198250;23;20025;-62
2023/06/12 01:50:43;;;;;;;9.00;3.83;;;;;;;25.67;34.63;101401.72;6198521;23;20021;-61
2023/06/12 01:53:13;;;;;;;7.50;3.90;;;;;;;25.65;34.13;101396.53;6199084;23;20103;-61
2023/06/12 01:55:41;;;;;;;5.85;3.97;;;;;;;25.65;34.18;101395.72;6199143;23;20087;-61
2023/06/12 01:58:09;;;;;;;6.72;3.72;;;;;;;25.63;34.18;101399.56;6197948;23;20025;-62
2023/06/12 02:00:37;;;;;;;6.05;3.90;;;;;;;25.63;34.01;101396.81;6198812;23;20025;-61
2023/06/12 02:03:06;;;;;;;7.30;3.80;;;;;;;25.60;34.25;101397.41;6198538;23;20025;-62
2023/06/12 02:05:34;;;;;;;6.78;3.78;;;;;;;25.58;34.18;101391.41;6198950;23;20055;-62
2023/06/12 02:08:03;;;;;;;9.13;4.35;;;;;;;25.57;34.15;101399.97;6198734;23;20078;-62
2023/06/12 02:10:31;;;;;;;5.32;4.13;;;;;;;25.56;34.41;101403.84;6198642;23;20084;-61
2023/06/12 02:12:59;;;;;;;5.85;3.85;;;;;;;25.54;34.32;101401.41;6197529;23;20052;-61
2023/06/12 02:15:28;;;;;;;5.72;3.88;;;;;;;25.51;34.43;101396.53;6198929;23;20025;-62
2023/06/12 02:17:56;;;;;;;5.60;4.07;;;;;;;25.49;34.27;101398.75;6198290;23;20059;-61
2023/06/12 02:20:24;;;;;;;7.70;4.45;;;;;;;25.48;34.49;101399.88;6199030;23;20100;-61
2023/06/12 02:22:51;;;;;;;8.80;5.07;;;;;;;25.46;34.45;101396.63;6198760;23;20052;-61
2023/06/12 02:25:21;;;;;;;6.50;4.47;;;;;;;25.45;34.23;101394.19;6198971;23;20021;-61
2023/06/12 02:27:48;;;;;;;6.22;4.45;;;;;;;25.40;34.26;101392.34;6197974;23;20021;-61
2023/06/12 02:30:16;;;;;;;6.60;4.25;;;;;;;25.38;34.19;101389.09;6198824;23;20025;-61
2023/06/12 02:32:44;;;;;;;5.18;4.38;;;;;;;25.38;34.21;101393.78;6200491;23;20045;-62
2023/06/12 02:35:12;;;;;;;8.13;4.18;;;;;;;25.36;34.28;101390.53;6200885;23;20021;-62
2023/06/12 02:37:40;;;;;;;6.10;4.35;;;;;;;25.34;34.32;101392.78;6200863;23;20060;-63
2023/06/12 02:40:09;;;;;;;5.45;3.80;;;;;;;25.30;34.51;101387.88;6200417;23;20025;-61
2023/06/12 02:42:38;;;;;;;6.05;3.92;;;;;;;25.27;34.29;101384.94;6199555;23;20103;-63
2023/06/12 02:45:07;;;;;;;6.40;3.83;;;;;;;25.25;34.53;101389.94;6200826;23;20028;-62
2023/06/12 02:47:35;;;;;;;6.45;4.50;;;;;;;25.20;34.43;101390.84;6200175;23;20395;-63
2023/06/12 02:50:03;;;;;;;6.05;4.03;;;;;;;25.17;34.38;101383.22;6200508;23;20021;-62
2023/06/12 02:52:31;;;;;;;7.75;4.18;;;;;;;25.13;34.25;101393.19;6200242;23;20071;-61
2023/06/12 02:54:58;;;;;;;7.55;4.53;;;;;;;25.12;34.26;101385.25;6200908;23;20025;-62
2023/06/12 02:57:26;;;;;;;6.60;4.45;;;;;;;25.08;34.31;101390.56;6199336;23;20021;-61
2023/06/12 02:59:55;;;;;;;6.45;4.50;;;;;;;25.07;34.57;101390.84;6200800;23;20025;-63
2023/06/12 03:02:23;;;;;;;13.57;4.82;;;;;;;25.04;34.47;101391.47;6200247;23;20021;-61
2023/06/12 03:04:52;;;;;;;7.95;4.40;;;;;;;25.02;34.34;101385.47;6200462;23;20029;-62
2023/06/12 03:07:21;;;;;;;6.07;4.35;;;;;;;25.00;34.45;101393.19;6200515;23;20052;-62
2023/06/12 03:09:49;;;;;;;6.93;4.00;;;;;;;24.95;34.67;101394.91;6200128;23;20121;-62
2023/06/12 03:12:17;;;;;;;7.68;4.15;;;;;;;24.92;34.51;101397.44;6199374;23;20355;-62
2023/06/12 03:14:46;;;;;;;5.57;3.97;;;;;;;24.89;34.50;101400.81;6199750;23;20025;-62
2023/06/12 03:17:15;;;;;;;6.20;4.40;;;;;;;24.87;34.47;101392.84;6199683;23;20080;-62
2023/06/12 03:19:44;;;;;;;6.38;4.43;;;;;;;24.87;34.49;101394.78;6199375;23;20533;-62
2023/06/12 03:22:12;;;;;;;8.88;4.72;;;;;;;24.84;34.60;101398.97;6199573;23;20025;-62
2023/06/12 03:24:40;;;;;;;7.60;4.35;;;;;;;24.81;34.69;101401.50;6200150;23;20021;-62
2023/06/12 03:27:08;;;;;;;5.57;4.38;;;;;;;24.79;34.66;101401.00;6199026;23;20032;-62
2023/06/12 03:29:36;;;;;;;6.63;4.05;;;;;;;24.77;34.46;101400.47;6200029;23;20025;-62
2023/06/12 03:32:04;;;;;;;7.82;4.32;;;;;;;24.75;34.53;101397.22;6199645;23;20521;-61
2023/06/12 03:34:33;;;;;;;8.25;5.00;;;;;;;24.71;34.73;101402.50;6200526;23;20056;-62
2023/06/12 03:37:01;;;;;;;8.02;5.25;;;;;;;24.72;34.75;101406.09;6199770;23;20091;-61
2023/06/12 03:39:29;;;;;;;6.18;4.88;;;;;;;24.71;34.58;101407.19;6200464;23;20024;-61
2023/06/12 03:41:57;;;;;;;6.00;4.15;;;;;;;24.68;34.76;101408.63;6198278;23;20095;-61
2023/06/12 03:44:25;;;;;;;5.45;4.15;;;;;;;24.66;34.86;101405.34;6200169;23;20092;-61
2023/06/12 03:46:53;;;;;;;6.47;4.15;;;;;;;24.65;34.90;101412.78;6199671;23;20048;-60
2023/06/12 03:49:23;;;;;;;5.32;3.97;;;;;;;24.63;34.90;101408.72;6199582;23;20197;-61
2023/06/12 03:51:52;;;;;;;6.47;4.00;;;;;;;24.60;34.79;101410.13;6199932;23;20473;-62
2023/06/12 03:54:20;;;;;;;7.10;4.70;;;;;;;24.59;34.69;101408.50;6199875;23;20325;-62
2023/06/12 03:56:48;;;;;;;7.38;5.15;;;;;;;24.55;34.51;101410.22;6198957;23;20091;-62
2023/06/12 03:59:16;;;;;;;6.28;4.82;;;;;;;24.55;34.88;101412.97;6200373;23;20108;-62
2023/06/12 04:01:43;;;;;;;6.55;4.65;;;;;;;24.54;34.90;101416.03;6199710;23;20021;-62
2023/06/12 04:04:11;;;;;;;5.90;3.95;;;;;;;24.51;35.04;101414.69;6199950;23;20024;-62
2023/06/12 04:06:40;;;;;;;8.52;4.45;;;;;;;24.50;34.74;101418.56;6199924;23;20021;-62
2023/06/12 04:09:12;;;;;;;6.75;4.47;;;;;;;24.49;34.71;101429.84;6199476;23;20053;-61
2023/06/12 04:11:40;;;;;;;6.15;4.85;;;;;;;24.49;35.06;101424.34;6198900;23;20025;-61
2023/06/12 04:14:08;;;;;;;6.00;4.55;;;;;;;24.44;34.99;101430.75;6199870;23;20021;-62
2023/06/12 04:16:36;;;;;;;5.78;4.65;;;;;;;24.43;34.88;101429.13;6199707;23;20025;-61
2023/06/12 04:19:04;;;;;;;6.82;4.30;;;;;;;24.42;35.25;101424.75;6199880;23;20025;-61
2023/06/12 04:21:33;;;;;;;7.03;5.13;;;;;;;24.39;34.87;101439.06;6199428;23;20035;-62
2023/06/12 04:24:02;;;;;;;8.75;5.32;;;;;;;24.37;35.21;101435.00;6199564;23;20032;-61
2023/06/12 04:26:34;;;;;;;8.23;4.95;;;;;;;24.36;34.78;101436.13;6198985;23;20021;-61
2023/06/12 04:29:02;;;;;;;10.13;4.88;;;;;;;24.32;34.83;101438.66;6200034;23;20025;-61
2023/06/12 04:31:31;;;;;;;5.55;4.65;;;;;;;24.30;35.25;101429.88;6199138;23;20044;-60
2023/06/12 04:34:00;;;;;;;8.18;5.43;;;;;;;24.26;35.21;101435.19;6199507;23;20048;-61
2023/06/12 04:36:28;;;;;;;8.57;5.30;;;;;;;24.25;35.21;101429.97;6199702;23;20025;-62
2023/06/12 04:38:56;;;;;;;8.00;4.18;;;;;;;24.22;35.05;101431.38;6199955;23;20051;-62
2023/06/12 04:41:27;;;;;;;8.40;4.60;;;;;;;24.19;35.02;101429.25;6198544;23;20028;-62
2023/06/12 04:43:58;;;;;;;6.78;4.70;;;;;;;24.18;35.47;101426.78;6199341;23;20032;-61
2023/06/12 04:46:27;;;;;;;5.95;4.38;;;;;;;24.13;35.33;101427.69;6199224;23;20045;-62
2023/06/12 04:48:56;;;;;;;6.30;4.72;;;;;;;24.16;35.36;101434.50;6198863;23;20024;-62
2023/06/12 04:51:24;;;;;;;6.97;5.00;;;;;;;24.14;35.38;101428.50;6199217;23;20072;-61
2023/06/12 04:53:53;;;;;;;10.32;4.63;;;;;;;24.10;35.08;101421.97;6198142;23;20098;-62
2023/06/12 04:56:21;;;;;;;11.15;4.63;;;;;;;24.14;35.45;101428.50;6198320;23;20021;-60
2023/06/12 04:58:50;;;;;;;6.88;4.32;;;;;;;24.15;35.35;101433.69;6199030;23;20048;-62
2023/06/12 05:01:21;;;;;;;6.95;4.25;;;;;;;24.16;35.46;101431.75;6198866;23;20031;-62
2023/06/12 05:03:50;;;;;;;6.25;5.00;;;;;;;24.18;35.45;101444.09;6199002;23;20083;-62
2023/06/12 05:06:18;;;;;;;8.27;4.38;;;;;;;24.20;35.07;101430.88;6199576;23;20032;-62
2023/06/12 05:08:46;;;;;;;7.38;5.10;;;;;;;24.22;35.66;101438.81;6199376;23;20029;-61
2023/06/12 05:11:14;;;;;;;9.48;5.45;;;;;;;24.24;35.42;101437.41;6198438;23;20032;-59
2023/06/12 05:13:42;;;;;;;7.68;5.30;;;;;;;24.26;35.63;101442.63;6198460;23;20459;-61
2023/06/12 05:16:10;;;;;;;10.23;4.57;;;;;;;24.26;35.36;101437.94;6199383;23;20051;-62
2023/06/12 05:18:39;;;;;;;8.02;4.78;;;;;;;24.27;35.31;101439.53;6198788;23;20064;-62
2023/06/12 05:21:07;;;;;;;10.23;4.88;;;;;;;24.30;35.63;101444.44;6199175;23;20028;-62
2023/06/12 05:23:35;;;;;;;7.07;4.15;;;;;;;24.34;35.56;101428.16;6198691;23;20121;-62
2023/06/12 05:26:04;;;;;;;6.57;4.80;;;;;;;24.37;35.38;101441.31;6198524;23;20459;-61
2023/06/12 05:28:31;;;;;;;8.15;5.07;;;;;;;24.41;35.67;101439.59;6199087;23;20025;-63
2023/06/12 05:30:59;;;;;;;8.45;5.05;;;;;;;24.42;35.64;101445.91;6199176;23;20025;-62
2023/06/12 05:33:27;;;;;;;9.15;4.82;;;;;;;24.46;35.51;101441.44;6198441;23;20017;-62
2023/06/12 05:35:56;;;;;;;8.15;4.45;;;;;;;24.47;35.50;101434.81;6198872;23;20029;-61
2023/06/12 05:38:25;;;;;;;8.13;4.63;;;;;;;24.48;35.46;101439.22;6199121;23;20095;-61
2023/06/12 05:40:53;;;;;;;9.00;4.40;;;;;;;24.50;35.56;101439.72;6198223;23;20025;-61
2023/06/12 05:43:20;;;;;;;7.32;4.75;;;;;;;24.51;35.51;101436.69;6198244;23;20027;-62
2023/06/12 05:45:48;;;;;;;8.23;5.28;;;;;;;24.52;35.34;101430.06;6198743;23;20028;-61
2023/06/12 05:48:16;;;;;;;9.05;4.60;;;;;;;24.54;35.36;101433.31;6198283;23;20352;-62
2023/06/12 05:50:44;;;;;;;8.00;4.40;;;;;;;24.54;35.71;101427.81;6198873;23;20025;-62
2023/06/12 05:53:13;;;;;;;9.20;4.05;;;;;;;24.56;35.33;101431.09;6198700;23;20075;-59
2023/06/12 05:55:41;;;;;;;9.00;4.60;;;;;;;24.57;35.64;101427.22;6199233;23;20025;-62
2023/06/12 05:58:08;;;;;;;8.50;4.90;;;;;;;24.57;35.52;101429.97;6197944;23;20025;-62
2023/06/12 06:00:37;;;;;;;6.53;4.38;;;;;;;24.60;35.82;101426.63;6199317;23;20029;-62
2023/06/12 06:03:06;;;;;;;7.15;4.40;;;;;;;24.61;35.62;101433.75;6198305;23;20052;-62
2023/06/12 06:05:34;;;;;;;9.07;4.72;;;;;;;24.62;35.73;101429.88;6198948;23;20036;-62
2023/06/12 06:08:02;;;;;;;5.82;4.38;;;;;;;24.63;35.83;101433.44;6198316;23;20057;-62
2023/06/12 06:10:32;;;;;;;36.42;9.85;;;;;;;24.63;36.06;101437.00;6198119;23;20025;-62
2023/06/12 06:13:01;;;;;;;30.80;8.70;;;;;;;24.65;35.97;101432.03;6197285;23;20021;-63
2023/06/12 06:15:28;;;;;;;39.22;10.35;;;;;;;24.66;35.82;101441.91;6198890;23;20029;-62
2023/06/12 06:17:57;;;;;;;35.72;10.85;;;;;;;24.66;35.84;101436.41;6198443;23;20025;-62
2023/06/12 06:20:26;;;;;;;25.35;8.25;;;;;;;24.61;35.95;101421.94;6198373;23;20167;-61
2023/06/12 06:22:54;;;;;;;28.73;7.85;;;;;;;24.69;36.00;101443.22;6198316;23;20029;-61
2023/06/12 06:25:23;;;;;;;30.42;8.52;;;;;;;24.70;35.86;101433.06;6199165;23;20024;-62
2023/06/12 06:27:52;;;;;;;26.40;7.90;;;;;;;24.71;36.09;101441.00;6198134;23;20024;-61
2023/06/12 06:30:20;;;;;;;20.13;6.50;;;;;;;24.73;35.91;101451.69;6199134;23;20025;-62
2023/06/12 06:32:49;;;;;;;17.40;7.07;;;;;;;24.73;36.15;101447.00;6198026;23;20024;-61
2023/06/12 06:35:17;;;;;;;15.80;6.65;;;;;;;24.74;35.98;101448.66;6199010;23;20082;-62
2023/06/12 06:37:45;;;;;;;19.15;6.60;;;;;;;24.75;36.00;101446.72;6198961;23;20025;-62
2023/06/12 06:40:14;;;;;;;15.40;6.30;;;;;;;24.75;35.96;101438.47;6198440;23;20467;-61
2023/06/12 06:42:42;;;;;;;23.35;6.57;;;;;;;24.77;36.12;101445.28;6197325;23;20049;-62
2023/06/12 06:45:12;;;;;;;16.05;6.50;;;;;;;24.79;36.00;101445.00;6198564;23;20029;-63
2023/06/12 06:47:40;;;;;;;14.30;6.63;;;;;;;24.79;36.24;101450.50;6197840;23;20025;-61
2023/06/12 06:50:09;;;;;;;13.73;6.72;;;;;;;24.80;36.27;101455.69;6198361;23;20025;-62
2023/06/12 06:52:37;;;;;;;20.58;6.05;;;;;;;24.81;36.02;101453.75;6197978;23;20032;-61
2023/06/12 06:55:05;;;;;;;9.63;5.20;;;;;;;24.80;36.41;101449.38;6198981;23;20071;-62
2023/06/12 06:57:36;;;;;;;11.05;5.57;;;;;;;24.81;36.32;101451.81;6197621;23;20052;-61
2023/06/12 07:00:06;;;;;;;11.68;5.65;;;;;;;24.83;36.32;101449.56;6199067;23;20029;-62
2023/06/12 07:02:35;;;;;;;10.75;6.15;;;;;;;24.84;36.53;101453.97;6197849;23;20103;-61
2023/06/12 07:05:03;;;;;;;9.85;5.00;;;;;;;24.86;36.66;101442.66;6198482;23;20021;-60
2023/06/12 07:07:31;;;;;;;9.52;5.30;;;;;;;24.86;36.29;101445.41;6198507;23;20079;-60
2023/06/12 07:10:03;;;;;;;10.15;5.38;;;;;;;24.87;36.77;101441.53;6198049;23;20025;-61
2023/06/12 07:12:30;;;;;;;12.95;5.22;;;;;;;24.87;36.49;101439.59;6197396;23;20033;-61
2023/06/12 07:14:58;;;;;;;14.23;5.18;;;;;;;24.89;36.42;101436.56;6198283;23;20021;-61
2023/06/12 07:17:26;;;;;;;14.30;6.20;;;;;;;24.89;36.65;101433.81;6198772;23;20029;-61
2023/06/12 07:19:55;;;;;;;10.82;5.20;;;;;;;24.90;36.59;101424.44;6200039;23;20044;-61
2023/06/12 07:22:23;;;;;;;9.93;5.30;;;;;;;24.92;36.75;101430.44;6200335;23;20029;-62
2023/06/12 07:24:52;;;;;;;7.72;4.97;;;;;;;24.92;36.75;101422.19;6200273;23;20048;-62
2023/06/12 07:27:19;;;;;;;17.70;5.97;;;;;;;24.92;36.54;101427.69;6199061;23;20024;-61
2023/06/12 07:29:47;;;;;;;10.98;4.93;;;;;;;24.92;36.59;101428.50;6200409;23;20025;-61
2023/06/12 07:32:15;;;;;;;8.00;4.72;;;;;;;24.93;36.59;101430.13;6199682;23;20025;-61
2023/06/12 07:34:43;;;;;;;7.68;4.93;;;;;;;24.92;36.95;101423.00;6200078;23;20017;-61
2023/06/12 07:37:12;;;;;;;8.05;4.25;;;;;;;24.92;36.52;101425.75;6199748;23;20079;-60
2023/06/12 07:39:40;;;;;;;7.68;4.82;;;;;;;24.93;36.72;101427.38;6200021;23;20085;-60
2023/06/12 07:42:09;;;;;;;11.27;4.75;;;;;;;24.94;36.64;101422.72;6198760;23;20029;-62
2023/06/12 07:44:37;;;;;;;10.07;4.85;;;;;;;24.94;36.78;101430.94;6199841;23;20031;-61
2023/06/12 07:47:06;;;;;;;7.28;4.55;;;;;;;24.95;37.04;101427.91;6200160;23;20029;-61
2023/06/12 07:49:34;;;;;;;9.23;5.90;;;;;;;24.96;36.85;101428.72;6199554;23;20033;-62
2023/06/12 07:52:02;;;;;;;7.88;5.22;;;;;;;24.95;36.94;101419.66;6199847;23;20025;-61
2023/06/12 07:54:31;;;;;;;9.65;4.70;;;;;;;24.96;36.73;101414.97;6199687;23;20072;-61
2023/06/12 07:56:59;;;;;;;8.07;4.60;;;;;;;24.96;36.71;101420.47;6199333;23;20021;-63
2023/06/12 07:59:27;;;;;;;9.02;4.93;;;;;;;24.95;36.73;101419.66;6200012;23;20029;-61
2023/06/12 08:01:55;;;;;;;9.10;4.57;;;;;;;24.96;36.94;101417.72;6199812;23;20025;-63
2023/06/12 08:04:23;;;;;;;7.78;4.50;;;;;;;24.99;36.81;101417.13;6199797;23;20021;-62
2023/06/12 08:06:54;;;;;;;9.07;4.22;;;;;;;25.01;36.84;101422.34;6199892;23;20032;-62
2023/06/12 08:09:22;;;;;;;7.75;4.78;;;;;;;25.03;36.67;101415.41;6199348;23;20040;-62
2023/06/12 08:11:51;;;;;;;8.30;4.50;;;;;;;25.05;36.88;101420.59;6198544;23;20021;-63
2023/06/12 08:14:19;;;;;;;6.63;4.80;;;;;;;25.08;36.74;101415.31;6199492;23;20017;-63
2023/06/12 08:16:49;;;;;;;6.03;4.28;;;;;;;25.11;36.99;101422.13;6199708;23;20032;-62
2023/06/12 08:19:16;;;;;;;8.50;4.43;;;;;;;25.12;36.87;101412.75;6199014;23;20029;-62
2023/06/12 08:21:44;;;;;;;7.15;4.85;;;;;;;25.14;36.90;101419.59;6199869;23;20024;-62
2023/06/12 08:24:13;;;;;;;8.98;4.18;;;;;;;25.16;36.81;101420.09;6199300;23;20021;-62
2023/06/12 08:26:41;;;;;;;10.77;4.10;;;;;;;25.17;36.85;101415.41;6198349;23;20051;-62
2023/06/12 08:29:11;;;;;;;7.25;3.85;;;;;;;25.18;36.86;101420.59;6199571;23;20024;-62
2023/06/12 08:31:40;;;;;;;9.95;4.80;;;;;;;25.19;37.05;101416.72;6199786;23;20025;-62
2023/06/12 08:34:08;;;;;;;5.97;4.45;;;;;;;25.20;36.88;101412.88;6199257;23;20017;-61
2023/06/12 08:36:36;;;;;;;7.53;4.38;;;;;;;25.22;36.98;101416.13;6199552;23;20024;-61
2023/06/12 08:39:04;;;;;;;8.60;4.47;;;;;;;25.23;37.02;101423.25;6199436;23;20052;-62
2023/06/12 08:41:34;;;;;;;7.63;4.75;;;;;;;25.24;37.03;101419.38;6198791;23;20061;-62
2023/06/12 08:44:02;;;;;;;7.60;4.40;;;;;;;25.24;37.13;101415.81;6199236;23;20105;-62
2023/06/12 08:46:32;;;;;;;6.22;4.10;;;;;;;25.16;37.10;101395.34;6199682;23;20024;-61
2023/06/12 08:49:00;;;;;;;6.50;4.32;;;;;;;25.25;36.68;101420.19;6198970;23;20028;-61
2023/06/12 08:51:30;;;;;;;6.32;4.38;;;;;;;25.23;36.94;101405.94;6199081;23;20128;-62
2023/06/12 08:54:00;;;;;;;9.07;4.20;;;;;;;25.27;36.73;101413.25;6199243;23;20021;-62
2023/06/12 08:56:29;;;;;;;9.73;4.07;;;;;;;25.28;36.58;101414.06;6199023;23;20080;-62
2023/06/12 08:58:57;;;;;;;8.20;4.75;;;;;;;25.30;36.70;101411.84;6199279;23;20104;-63
2023/06/12 09:01:28;;;;;;;7.28;4.55;;;;;;;25.31;36.92;101407.97;6199328;23;20031;-62
2023/06/12 09:04:01;;;;;;;8.70;4.47;;;;;;;25.33;36.72;101405.72;6199305;23;20021;-62
2023/06/12 09:06:34;;;;;;;11.43;4.93;;;;;;;25.35;36.87;101406.22;6199345;23;20033;-62
2023/06/12 09:09:02;;;;;;;6.45;4.28;;;;;;;25.39;36.73;101406.44;6199223;23;20028;-62
2023/06/12 09:11:30;;;;;;;10.48;4.10;;;;;;;25.43;36.92;101404.69;6198630;23;20025;-62
2023/06/12 09:14:00;;;;;;;6.00;4.13;;;;;;;25.46;37.15;101395.81;6198417;23;20091;-62
2023/06/12 09:16:28;;;;;;;6.40;4.72;;;;;;;25.49;37.10;101392.44;6198749;23;20032;-62
2023/06/12 09:18:58;;;;;;;10.45;4.80;;;;;;;25.52;36.96;101389.06;6199148;23;20077;-64
2023/06/12 09:21:26;;;;;;;8.02;5.13;;;;;;;25.53;37.03;101396.22;6199412;23;20032;-62
2023/06/12 09:23:55;;;;;;;8.93;4.00;;;;;;;25.54;36.74;101395.91;6198582;23;20104;-62
2023/06/12 09:26:23;;;;;;;12.48;4.70;;;;;;;25.55;36.69;101397.53;6198335;23;20066;-61
2023/06/12 09:28:52;;;;;;;6.45;4.82;;;;;;;25.56;36.96;101392.84;6198970;23;20025;-61
2023/06/12 09:31:20;;;;;;;8.30;3.92;;;;;;;25.57;36.72;101387.03;6199165;23;20399;-60
2023/06/12 09:33:52;;;;;;;8.77;4.53;;;;;;;25.57;36.66;101384.28;6199155;23;20368;-62
2023/06/12 09:36:28;;;;;;;8.88;5.03;;;;;;;25.60;36.82;101386.41;6198994;23;20114;-62
2023/06/12 09:38:56;;;;;;;8.20;4.03;;;;;;;25.63;36.66;101385.78;6198595;23;20021;-62
2023/06/12 09:41:24;;;;;;;7.75;3.97;;;;;;;25.67;36.91;101382.44;6198430;23;20045;-61
2023/06/12 09:43:53;;;;;;;5.13;4.32;;;;;;;25.69;36.80;101391.22;6198775;23;20025;-62
2023/06/12 09:46:25;;;;;;;7.57;4.13;;;;;;;25.71;36.89;101383.44;6198740;23;20068;-62
2023/06/12 09:48:56;;;;;;;10.95;4.82;;;;;;;25.73;36.83;101384.78;6198848;23;20044;-62
2023/06/12 09:51:27;;;;;;;8.20;4.25;;;;;;;25.71;36.93;101375.19;6198474;23;20351;-62
2023/06/12 09:53:58;;;;;;;9.80;3.95;;;;;;;25.78;36.82;101390.16;6198906;23;20023;-62
2023/06/12 09:56:26;;;;;;;6.50;4.45;;;;;;;25.85;36.89;101387.78;6198652;23;20021;-64
2023/06/12 09:58:56;;;;;;;6.75;3.75;;;;;;;25.92;36.82;101387.34;6198864;23;20032;-62
2023/06/12 10:01:26;;;;;;;8.10;3.97;;;;;;;25.96;36.57;101390.31;6198734;23;20032;-62
2023/06/12 10:03:59;;;;;;;7.75;4.13;;;;;;;26.01;36.94;101385.47;6198570;23;20024;-62
2023/06/12 10:06:32;;;;;;;8.38;4.15;;;;;;;26.07;36.91;101391.66;6199151;23;20035;-62
2023/06/12 10:08:59;;;;;;;8.63;4.57;;;;;;;26.12;36.73;101375.81;6198647;23;20075;-61
2023/06/12 10:11:28;;;;;;;10.57;3.83;;;;;;;26.16;36.60;101376.81;6198234;23;20411;-62
2023/06/12 10:13:58;;;;;;;9.38;4.10;;;;;;;26.18;36.60;101371.81;6198173;23;20045;-63
2023/06/12 10:16:28;;;;;;;8.10;4.10;;;;;;;26.21;36.63;101373.13;6198352;23;20017;-62
2023/06/12 10:18:56;;;;;;;10.07;4.75;;;;;;;26.22;36.28;101374.75;6198912;23;20103;-62
2023/06/12 10:21:24;;;;;;;7.72;4.40;;;;;;;26.17;36.47;101356.41;6199074;23;20021;-62
2023/06/12 10:23:55;;;;;;;8.07;4.95;;;;;;;26.24;36.74;101365.03;6198579;23;20029;-62
2023/06/12 10:26:23;;;;;;;8.38;4.38;;;;;;;26.30;36.51;101364.91;6198474;23;20028;-62
2023/06/12 10:28:51;;;;;;;7.90;4.38;;;;;;;26.36;36.64;101366.44;6198448;23;20032;-62
2023/06/12 10:31:19;;;;;;;6.35;4.65;;;;;;;26.40;36.50;101367.44;6198521;23;20514;-63
2023/06/12 10:34:02;;;;;;;6.22;4.30;;;;;;;26.46;36.66;101372.50;6198769;23;20084;-62
2023/06/12 10:36:42;;;;;;;9.68;4.30;;;;;;;26.48;36.45;101359.22;6198774;23;20243;-63
2023/06/12 10:39:19;;;;;;;4.85;3.85;;;;;;;26.51;36.50;101355.00;6198287;23;20068;-62
2023/06/12 10:41:56;;;;;;;6.82;4.15;;;;;;;26.52;36.44;101362.97;6197506;23;20035;-61
2023/06/12 10:44:37;;;;;;;8.02;4.32;;;;;;;26.55;36.36;101365.06;6198786;23;20080;-63
2023/06/12 10:47:06;;;;;;;7.80;4.53;;;;;;;26.61;36.57;101363.00;6198544;23;20017;-63
2023/06/12 10:49:55;;;;;;;6.28;4.00;;;;;;;26.64;36.35;101347.75;6197972;23;20396;-62
2023/06/12 10:52:23;;;;;;;9.77;4.30;;;;;;;26.65;36.22;101341.94;6199738;23;20025;-63
2023/06/12 10:55:23;;;;;;;9.23;4.40;;;;;;;26.64;35.88;101345.00;6200703;23;20044;-61
2023/06/12 10:57:52;;;;;;;7.40;4.60;;;;;;;26.66;36.27;101338.03;6199338;23;20021;-62
2023/06/12 11:00:21;;;;;;;7.93;4.75;;;;;;;26.72;36.11;101341.47;6200573;23;20031;-61
2023/06/12 11:02:58;;;;;;;5.30;4.35;;;;;;;26.78;35.89;101342.97;6200678;23;20025;-63
2023/06/12 11:05:27;;;;;;;9.65;4.47;;;;;;;26.80;35.79;101335.19;6200073;23;20056;-63
2023/06/12 11:07:57;;;;;;;7.25;4.63;;;;;;;26.83;35.99;101332.59;6200411;23;20025;-62
2023/06/12 11:10:26;;;;;;;6.32;4.45;;;;;;;26.88;36.21;101339.91;6199883;23;20025;-62
2023/06/12 11:12:55;;;;;;;7.82;4.18;;;;;;;26.95;36.38;101331.97;6199285;23;20025;-62
2023/06/12 11:15:23;;;;;;;8.15;3.95;;;;;;;27.04;36.12;101341.13;6200300;23;20025;-62
2023/06/12 11:17:52;;;;;;;6.25;4.53;;;;;;;27.05;35.47;101333.66;6200134;23;20024;-61
2023/06/12 11:20:22;;;;;;;8.65;4.53;;;;;;;27.10;35.83;101330.75;6200171;23;20052;-62
2023/06/12 11:23:00;;;;;;;11.10;4.88;;;;;;;27.17;36.16;101320.88;6200368;23;20073;-63
2023/06/12 11:25:32;;;;;;;8.98;4.30;;;;;;;27.28;36.36;101328.84;6200269;23;20021;-62
2023/06/12 11:28:01;;;;;;;10.02;4.57;;;;;;;27.33;35.92;101325.91;6198974;23;20021;-62
2023/06/12 11:30:29;;;;;;;5.57;4.25;;;;;;;27.35;35.66;101320.88;6200343;23;20052;-62
2023/06/12 11:33:07;;;;;;;8.85;4.10;;;;;;;27.38;35.76;101328.53;6199954;23;20455;-63
2023/06/12 11:35:40;;;;;;;7.53;4.38;;;;;;;27.42;36.02;101315.69;6199805;23;20024;-62